createdAt,value
2022-11-26T00:02:23.549Z,8.50
2022-11-26T00:04:54.156Z,10.50
2022-11-26T00:07:27.033Z,8.05
2022-11-26T00:09:55.705Z,11.93
2022-11-26T00:12:25.906Z,10.23
2022-11-26T00:14:54.604Z,10.88
2022-11-26T00:17:23.009Z,8.23
2022-11-26T00:19:52.526Z,9.27
2022-11-26T00:22:27.649Z,7.97
2022-11-26T00:24:56.479Z,9.27
2022-11-26T00:27:27.019Z,7.13
2022-11-26T00:29:55.717Z,10.80
2022-11-26T00:32:27.286Z,8.25
2022-11-26T00:34:56.909Z,6.88
2022-11-26T00:37:29.192Z,9.10
2022-11-26T00:40:00.942Z,11.52
2022-11-26T00:42:28.930Z,10.35
2022-11-26T00:44:56.927Z,12.45
2022-11-26T00:47:24.947Z,7.28
2022-11-26T00:49:52.920Z,8.93
2022-11-26T00:52:29.681Z,11.68
2022-11-26T00:54:57.733Z,7.38
2022-11-26T00:57:25.709Z,8.27
2022-11-26T00:59:53.743Z,8.32
2022-11-26T01:02:21.761Z,7.65
2022-11-26T01:04:49.795Z,7.13
2022-11-26T01:07:17.933Z,8.40
2022-11-26T01:09:48.582Z,8.93
2022-11-26T01:12:16.924Z,7.95
2022-11-26T01:14:45.421Z,9.30
2022-11-26T01:17:13.568Z,9.23
2022-11-26T01:19:41.660Z,9.07
2022-11-26T01:22:19.971Z,8.32
2022-11-26T01:24:50.083Z,7.43
2022-11-26T01:27:20.436Z,6.93
2022-11-26T01:29:48.767Z,6.88
2022-11-26T01:32:16.831Z,9.30
2022-11-26T01:34:44.838Z,7.15
2022-11-26T01:37:14.431Z,7.15
2022-11-26T01:39:42.753Z,7.13
2022-11-26T01:42:25.651Z,9.27
2022-11-26T01:44:53.951Z,6.82
2022-11-26T01:47:24.474Z,10.95
2022-11-26T01:50:29.694Z,7.45
2022-11-26T01:53:00.938Z,5.55
2022-11-26T01:55:35.827Z,7.00
2022-11-26T01:58:08.590Z,10.10
2022-11-26T02:00:36.744Z,4.93
2022-11-26T02:03:05.870Z,6.72
2022-11-26T02:05:39.658Z,8.23
2022-11-26T02:08:08.616Z,7.68
2022-11-26T02:10:36.770Z,9.30
2022-11-26T02:13:06.936Z,6.32
2022-11-26T02:15:44.835Z,10.73
2022-11-26T02:18:13.529Z,5.63
2022-11-26T02:20:52.008Z,7.90
2022-11-26T02:23:48.836Z,8.70
2022-11-26T02:26:58.597Z,6.68
2022-11-26T02:29:44.855Z,12.02
2022-11-26T02:32:18.865Z,6.68
2022-11-26T02:34:56.045Z,6.32
2022-11-26T02:37:28.730Z,6.82
2022-11-26T02:39:58.355Z,5.38
2022-11-26T02:42:28.365Z,7.45
2022-11-26T02:45:00.935Z,10.43
2022-11-26T02:47:30.633Z,6.90
2022-11-26T02:50:01.655Z,8.25
2022-11-26T02:52:30.777Z,4.40
2022-11-26T02:54:59.469Z,5.60
2022-11-26T02:57:31.613Z,8.43
2022-11-26T03:00:01.281Z,7.25
2022-11-26T03:02:35.745Z,9.45
2022-11-26T03:05:04.684Z,7.38
2022-11-26T03:07:35.642Z,6.70
2022-11-26T03:10:04.891Z,6.00
2022-11-26T03:12:32.944Z,4.32
2022-11-26T03:15:02.781Z,4.88
2022-11-26T03:17:30.797Z,7.20
2022-11-26T03:19:58.904Z,11.93
2022-11-26T03:22:26.964Z,6.35
2022-11-26T03:24:54.981Z,9.63
2022-11-26T03:27:23.040Z,8.50
2022-11-26T03:29:51.000Z,7.93
2022-11-26T03:32:20.388Z,7.13
2022-11-26T03:34:48.367Z,6.97
2022-11-26T03:37:16.656Z,5.40
2022-11-26T03:39:44.768Z,7.03
2022-11-26T03:42:12.716Z,5.53
2022-11-26T03:44:40.856Z,8.85
2022-11-26T03:47:08.986Z,9.07
2022-11-26T03:49:38.412Z,5.63
2022-11-26T03:52:06.788Z,6.80
2022-11-26T03:54:34.803Z,8.27
2022-11-26T03:57:03.002Z,5.22
2022-11-26T03:59:31.068Z,9.13
2022-11-26T04:01:59.143Z,6.60
2022-11-26T04:04:27.276Z,6.78
2022-11-26T04:06:57.178Z,6.97
2022-11-26T04:09:25.342Z,7.68
2022-11-26T04:11:53.298Z,7.25
2022-11-26T04:14:21.295Z,9.88
2022-11-26T04:16:49.458Z,8.15
2022-11-26T04:19:17.576Z,6.90
2022-11-26T04:21:45.554Z,7.47
2022-11-26T04:24:14.870Z,7.78
2022-11-26T04:26:42.922Z,9.25
2022-11-26T04:29:10.926Z,7.30
2022-11-26T04:31:39.033Z,8.20
2022-11-26T04:34:07.098Z,9.45
2022-11-26T04:36:35.225Z,9.85
2022-11-26T04:39:03.705Z,7.72
2022-11-26T04:41:33.107Z,7.38
2022-11-26T04:44:01.087Z,10.60
2022-11-26T04:46:29.061Z,8.82
2022-11-26T04:48:57.017Z,8.52
2022-11-26T04:51:25.082Z,6.38
2022-11-26T04:53:55.755Z,9.43
2022-11-26T04:56:24.229Z,10.85
2022-11-26T04:58:53.727Z,8.93
2022-11-26T05:01:21.831Z,8.52
2022-11-26T05:03:49.835Z,7.10
2022-11-26T05:06:18.064Z,6.22
2022-11-26T05:08:46.066Z,8.13
2022-11-26T05:11:14.090Z,9.20
2022-11-26T05:13:42.028Z,10.80
2022-11-26T05:16:11.813Z,8.65
2022-11-26T05:18:39.895Z,8.40
2022-11-26T05:21:08.189Z,8.05
2022-11-26T05:23:36.252Z,8.32
2022-11-26T05:26:04.320Z,10.25
2022-11-26T05:28:32.307Z,9.68
2022-11-26T05:31:01.692Z,9.45
2022-11-26T05:33:31.406Z,10.57
2022-11-26T05:35:59.386Z,10.30
2022-11-26T05:38:28.737Z,7.78
2022-11-26T05:40:56.731Z,8.88
2022-11-26T05:43:25.188Z,8.68
2022-11-26T05:45:53.229Z,9.40
2022-11-26T05:48:21.277Z,13.52
2022-11-26T05:50:57.201Z,8.15
2022-11-26T05:53:25.424Z,10.23
2022-11-26T05:55:53.447Z,11.05
2022-11-26T05:58:21.422Z,8.52
2022-11-26T06:00:49.492Z,8.95
2022-11-26T06:03:20.322Z,10.38
2022-11-26T06:05:50.156Z,6.75
2022-11-26T06:08:18.290Z,11.15
2022-11-26T06:10:46.335Z,8.88
2022-11-26T06:13:14.482Z,14.13
2022-11-26T06:15:42.474Z,10.45
2022-11-26T06:18:10.541Z,11.90
2022-11-26T06:20:39.284Z,8.82
2022-11-26T06:23:08.677Z,11.07
2022-11-26T06:25:37.358Z,9.75
2022-11-26T06:28:05.681Z,11.02
2022-11-26T06:30:33.896Z,10.05
2022-11-26T06:33:01.986Z,11.05
2022-11-26T06:35:30.008Z,9.00
2022-11-26T06:37:57.921Z,11.95
2022-11-26T06:40:27.243Z,8.35
2022-11-26T06:42:57.035Z,11.45
2022-11-26T06:45:25.581Z,9.30
2022-11-26T06:47:53.696Z,8.23
2022-11-26T06:50:23.825Z,12.52
2022-11-26T06:52:53.253Z,8.77
2022-11-26T06:55:21.834Z,14.68
2022-11-26T06:57:52.401Z,9.13
2022-11-26T07:00:21.956Z,9.13
2022-11-26T07:02:52.722Z,10.95
2022-11-26T07:05:20.845Z,13.25
2022-11-26T07:07:48.870Z,12.52
2022-11-26T07:10:17.278Z,9.50
2022-11-26T07:12:45.326Z,10.75
2022-11-26T07:15:14.745Z,7.63
2022-11-26T07:17:42.771Z,9.02
2022-11-26T07:20:11.436Z,11.40
2022-11-26T07:22:39.472Z,9.52
2022-11-26T07:25:12.282Z,9.73
2022-11-26T07:27:41.187Z,6.97
2022-11-26T07:30:10.581Z,8.30
2022-11-26T07:32:40.059Z,6.57
2022-11-26T07:35:08.555Z,9.52
2022-11-26T07:37:36.894Z,6.18
2022-11-26T07:40:06.335Z,7.00
2022-11-26T07:42:34.863Z,7.28
2022-11-26T07:45:03.775Z,5.93
2022-11-26T07:47:31.771Z,8.88
2022-11-26T07:50:01.382Z,8.00
2022-11-26T07:52:29.426Z,6.07
2022-11-26T07:54:57.428Z,7.30
2022-11-26T07:57:25.463Z,6.25
2022-11-26T07:59:53.490Z,8.88
2022-11-26T08:02:22.028Z,4.97
2022-11-26T08:04:50.132Z,7.72
2022-11-26T08:07:24.706Z,4.45
2022-11-26T08:09:58.332Z,2.90
2022-11-26T08:12:26.720Z,5.47
2022-11-26T08:14:54.830Z,6.28
2022-11-26T08:17:22.875Z,7.80
2022-11-26T08:19:50.922Z,4.82
2022-11-26T08:22:20.271Z,5.47
2022-11-26T08:24:48.262Z,4.30
2022-11-26T08:27:16.304Z,5.80
2022-11-26T08:29:44.280Z,6.82
2022-11-26T08:32:12.273Z,5.35
2022-11-26T08:34:40.595Z,3.63
2022-11-26T08:37:08.853Z,4.45
2022-11-26T08:39:38.164Z,5.75
2022-11-26T08:42:06.320Z,3.05
2022-11-26T08:44:34.367Z,6.15
2022-11-26T08:47:02.583Z,5.97
2022-11-26T08:49:30.817Z,4.20
2022-11-26T08:51:58.832Z,5.38
2022-11-26T08:54:26.981Z,7.32
2022-11-26T08:56:56.903Z,6.22
2022-11-26T08:59:25.295Z,4.47
2022-11-26T09:01:53.512Z,3.17
2022-11-26T09:04:21.774Z,4.10
2022-11-26T09:06:49.765Z,6.82
2022-11-26T09:09:18.254Z,4.25
2022-11-26T09:11:49.599Z,6.15
2022-11-26T09:14:20.626Z,3.95
2022-11-26T09:16:48.814Z,5.68
2022-11-26T09:19:17.652Z,3.08
2022-11-26T09:21:46.288Z,5.40
2022-11-26T09:24:15.043Z,4.57
2022-11-26T09:26:43.363Z,4.88
2022-11-26T09:29:14.206Z,4.50
2022-11-26T09:32:07.612Z,5.38
2022-11-26T09:34:33.193Z,4.05
2022-11-26T09:37:01.234Z,4.65
2022-11-26T09:39:29.541Z,6.22
2022-11-26T09:42:05.575Z,5.63
2022-11-26T09:44:47.065Z,4.22
2022-11-26T09:47:19.314Z,4.00
2022-11-26T09:54:56.210Z,5.40
2022-11-26T09:57:30.937Z,4.38
2022-11-26T09:59:58.953Z,4.47
2022-11-26T10:02:28.382Z,6.93
2022-11-26T10:04:56.496Z,6.78
2022-11-26T10:07:43.438Z,6.85
2022-11-26T10:10:19.567Z,5.35
2022-11-26T10:15:59.473Z,7.35
2022-11-26T10:18:38.465Z,6.70
2022-11-26T10:21:20.431Z,7.78
2022-11-26T10:24:00.002Z,8.90
2022-11-26T10:26:31.070Z,9.57
2022-11-26T10:29:13.930Z,8.73
2022-11-26T10:31:44.586Z,8.47
2022-11-26T10:34:18.152Z,5.10
2022-11-26T10:36:48.211Z,8.05
2022-11-26T10:39:19.030Z,6.45
2022-11-26T10:41:47.888Z,7.13
2022-11-26T10:44:41.055Z,5.65
2022-11-26T10:47:25.372Z,5.45
2022-11-26T10:49:56.941Z,7.28
2022-11-26T10:52:28.371Z,6.60
2022-11-26T10:55:27.810Z,8.23
2022-11-26T10:58:02.424Z,6.05
2022-11-26T11:00:35.570Z,9.93
2022-11-26T11:03:06.050Z,8.60
2022-11-26T11:05:35.900Z,10.18
2022-11-26T11:08:04.330Z,7.03
2022-11-26T11:10:32.539Z,11.95
2022-11-26T11:13:11.988Z,14.93
2022-11-26T11:15:42.341Z,10.43
2022-11-26T11:18:20.226Z,11.75
2022-11-26T11:20:56.718Z,17.40
2022-11-26T11:23:45.803Z,10.25
2022-11-26T11:26:20.521Z,11.75
2022-11-26T11:28:50.633Z,11.77
2022-11-26T11:31:20.919Z,12.05
2022-11-26T11:33:50.410Z,14.32
2022-11-26T11:36:26.826Z,11.43
2022-11-26T11:38:56.794Z,10.45
2022-11-26T11:41:31.992Z,12.45
2022-11-26T11:44:07.467Z,10.23
2022-11-26T11:47:05.243Z,10.85
2022-11-26T11:50:06.540Z,12.57
2022-11-26T11:52:43.788Z,10.30
2022-11-26T11:55:22.328Z,11.30
2022-11-26T11:58:26.972Z,9.48
2022-11-26T12:00:58.801Z,11.35
2022-11-26T12:03:46.920Z,11.85
2022-11-26T12:06:24.684Z,12.18
2022-11-26T12:09:03.734Z,9.90
2022-11-26T12:11:42.762Z,12.52
2022-11-26T12:14:16.263Z,9.77
2022-11-26T12:16:48.429Z,10.93
2022-11-26T12:19:26.738Z,14.13
2022-11-26T12:22:02.924Z,12.63
2022-11-26T12:24:40.141Z,13.05
2022-11-26T12:27:16.055Z,10.57
2022-11-26T12:29:48.511Z,11.10
2022-11-26T12:32:20.394Z,12.18
2022-11-26T12:34:52.621Z,11.80
2022-11-26T12:37:22.494Z,11.48
2022-11-26T12:39:57.685Z,12.63
2022-11-26T12:42:31.628Z,14.15
2022-11-26T12:45:07.423Z,10.55
2022-11-26T12:47:39.766Z,10.20
2022-11-26T12:50:16.302Z,8.73
2022-11-26T12:52:51.854Z,23.40
2022-11-26T12:55:26.237Z,10.73
2022-11-26T12:57:58.220Z,12.18
2022-11-26T13:00:35.676Z,11.88
2022-11-26T13:03:06.626Z,11.07
2022-11-26T13:05:48.583Z,11.40
2022-11-26T13:08:33.905Z,12.35
2022-11-26T13:11:15.754Z,9.75
2022-11-26T13:13:51.251Z,12.52
2022-11-26T13:16:26.073Z,10.88
2022-11-26T13:18:57.230Z,8.93
2022-11-26T13:21:48.682Z,11.52
2022-11-26T13:24:33.826Z,14.10
2022-11-26T13:27:23.005Z,10.05
2022-11-26T13:30:05.601Z,9.63
2022-11-26T13:33:09.259Z,9.32
2022-11-26T13:36:15.632Z,11.52
2022-11-26T13:38:57.363Z,10.80
2022-11-26T13:41:49.925Z,10.77
2022-11-26T13:44:51.751Z,11.52
2022-11-26T13:47:23.623Z,12.05
2022-11-26T13:49:58.960Z,7.38
2022-11-26T13:52:33.411Z,8.15
2022-11-26T13:55:05.854Z,9.88
2022-11-26T13:57:40.892Z,13.33
2022-11-26T14:00:12.004Z,10.80
2022-11-26T14:02:44.517Z,10.73
2022-11-26T14:05:15.177Z,12.82
2022-11-26T14:07:44.263Z,9.48
2022-11-26T14:10:41.203Z,9.90
2022-11-26T14:13:16.169Z,11.75
2022-11-26T14:16:00.241Z,10.88
2022-11-26T14:19:04.573Z,11.23
2022-11-26T14:21:32.701Z,9.60
2022-11-26T14:24:02.171Z,11.43
2022-11-26T14:26:34.611Z,8.35
2022-11-26T14:29:13.011Z,10.03
2022-11-26T14:31:49.816Z,8.38
2022-11-26T14:34:24.184Z,12.65
2022-11-26T14:36:55.120Z,14.30
2022-11-26T14:39:23.448Z,8.93
2022-11-26T14:42:01.886Z,12.05
2022-11-26T14:44:32.377Z,10.50
2022-11-26T14:47:10.937Z,9.93
2022-11-26T14:49:41.008Z,8.18
2022-11-26T14:52:19.822Z,10.60
2022-11-26T14:54:50.236Z,14.27
2022-11-26T14:57:22.751Z,8.20
2022-11-26T14:59:58.079Z,7.38
2022-11-26T15:02:30.200Z,10.38
2022-11-26T15:05:00.088Z,9.30
2022-11-26T15:07:30.351Z,10.68
2022-11-26T15:10:02.650Z,10.95
2022-11-26T15:12:31.441Z,8.00
2022-11-26T15:15:00.849Z,7.07
2022-11-26T15:17:33.458Z,9.63
2022-11-26T15:20:05.385Z,11.27
2022-11-26T15:22:37.601Z,15.27
2022-11-26T15:25:06.954Z,13.90
2022-11-26T15:27:38.515Z,11.70
2022-11-26T15:30:18.864Z,13.15
2022-11-26T15:32:48.393Z,13.43
2022-11-26T15:35:17.806Z,10.95
2022-11-26T15:37:45.815Z,13.00
2022-11-26T15:40:22.885Z,11.35
2022-11-26T15:42:54.583Z,14.13
2022-11-26T15:45:24.487Z,10.85
2022-11-26T15:47:55.413Z,13.60
2022-11-26T15:50:28.233Z,11.00
2022-11-26T15:52:59.861Z,9.00
2022-11-26T15:55:31.032Z,9.60
2022-11-26T15:58:03.701Z,12.88
2022-11-26T16:00:35.543Z,7.25
2022-11-26T16:03:06.160Z,13.25
2022-11-26T16:05:38.255Z,12.38
2022-11-26T16:08:24.181Z,13.00
2022-11-26T16:10:56.311Z,14.15
2022-11-26T16:13:28.532Z,11.13
2022-11-26T16:16:05.202Z,12.27
2022-11-26T16:18:38.123Z,11.70
2022-11-26T16:21:08.903Z,12.30
2022-11-26T16:23:37.044Z,11.65
2022-11-26T16:26:10.900Z,12.82
2022-11-26T16:28:39.150Z,16.02
2022-11-26T16:31:08.171Z,12.90
2022-11-26T16:33:37.704Z,17.05
2022-11-26T16:36:19.300Z,16.40
2022-11-26T16:38:47.797Z,14.35
2022-11-26T16:41:17.494Z,12.98
2022-11-26T16:43:45.485Z,15.50
2022-11-26T16:46:16.343Z,13.65
2022-11-26T16:48:47.291Z,10.07
2022-11-26T16:51:15.387Z,11.68
2022-11-26T16:53:43.540Z,11.73
2022-11-26T16:56:19.983Z,12.00
2022-11-26T16:58:48.419Z,14.25
2022-11-26T17:01:16.863Z,19.38
2022-11-26T17:03:46.454Z,18.25
2022-11-26T17:06:18.820Z,20.42
2022-11-26T17:08:49.757Z,16.80
2022-11-26T17:11:18.809Z,17.98
2022-11-26T17:13:46.899Z,22.23
2022-11-26T17:16:17.445Z,23.98
2022-11-26T17:18:47.260Z,21.05
2022-11-26T17:21:15.705Z,19.80
2022-11-26T17:23:43.966Z,15.07
2022-11-26T17:26:20.581Z,20.98
2022-11-26T17:28:49.218Z,17.15
2022-11-26T17:31:19.965Z,13.32
2022-11-26T17:33:50.629Z,14.32
2022-11-26T17:36:21.352Z,15.57
2022-11-26T17:38:50.119Z,12.23
2022-11-26T17:41:18.168Z,11.25
2022-11-26T17:43:46.265Z,10.63
2022-11-26T17:46:16.938Z,12.48
2022-11-26T17:48:45.311Z,12.07
2022-11-26T17:51:15.383Z,11.40
2022-11-26T17:53:44.353Z,9.93
2022-11-26T17:56:18.182Z,11.57
2022-11-26T17:58:46.674Z,11.57
2022-11-26T18:01:17.064Z,11.30
2022-11-26T18:03:45.544Z,10.40
2022-11-26T18:06:17.939Z,11.48
2022-11-26T18:08:47.022Z,10.80
2022-11-26T18:11:17.661Z,11.90
2022-11-26T18:13:46.116Z,13.30
2022-11-26T18:16:14.280Z,13.70
2022-11-26T18:18:42.367Z,12.18
2022-11-26T18:21:10.358Z,9.60
2022-11-26T18:23:41.289Z,11.77
2022-11-26T18:26:17.229Z,11.90
2022-11-26T18:28:45.231Z,12.57
2022-11-26T18:31:13.526Z,11.13
2022-11-26T18:33:41.781Z,9.48
2022-11-26T18:36:10.343Z,12.18
2022-11-26T18:38:40.045Z,12.77
2022-11-26T18:41:08.548Z,13.07
2022-11-26T18:43:38.756Z,13.73
2022-11-26T18:46:11.420Z,10.90
2022-11-26T18:48:40.124Z,9.90
2022-11-26T18:51:08.123Z,13.05
2022-11-26T18:53:36.726Z,13.98
2022-11-26T18:56:10.385Z,11.18
2022-11-26T18:58:38.342Z,13.23
2022-11-26T19:01:14.112Z,11.35
2022-11-26T19:03:44.006Z,11.45
2022-11-26T19:06:15.250Z,17.50
2022-11-26T19:08:43.546Z,10.40
2022-11-26T19:11:14.764Z,11.88
2022-11-26T19:13:43.196Z,13.00
2022-11-26T19:16:16.560Z,12.93
2022-11-26T19:18:46.037Z,15.60
2022-11-26T19:21:19.679Z,14.32
2022-11-26T19:23:48.102Z,14.30
2022-11-26T19:26:17.906Z,13.77
2022-11-26T19:28:46.213Z,9.73
2022-11-26T19:31:16.428Z,12.43
2022-11-26T19:33:46.240Z,11.73
2022-11-26T19:36:16.114Z,10.27
2022-11-26T19:38:44.827Z,12.70
2022-11-26T19:41:13.822Z,17.77
2022-11-26T19:43:43.687Z,20.52
2022-11-26T19:46:13.479Z,19.38
2022-11-26T19:48:43.431Z,26.45
2022-11-26T19:51:12.508Z,22.42
2022-11-26T19:53:41.071Z,24.98
2022-11-26T19:56:12.583Z,21.15
2022-11-26T19:58:40.583Z,15.55
2022-11-26T20:01:16.862Z,15.48
2022-11-26T20:03:45.613Z,14.75
2022-11-26T20:06:18.937Z,16.48
2022-11-26T20:08:47.655Z,13.18
2022-11-26T20:11:16.952Z,12.13
2022-11-26T20:13:46.564Z,12.52
2022-11-26T20:16:18.488Z,16.60
2022-11-26T20:18:46.923Z,13.40
2022-11-26T20:21:16.760Z,14.18
2022-11-26T20:23:44.752Z,14.10
2022-11-26T20:26:18.236Z,13.73
2022-11-26T20:28:46.589Z,11.82
2022-11-26T20:31:20.678Z,14.77
2022-11-26T20:33:50.349Z,13.05
2022-11-26T20:36:20.733Z,14.77
2022-11-26T20:38:52.128Z,10.98
2022-11-26T20:41:20.387Z,11.52
2022-11-26T20:43:49.653Z,15.10
2022-11-26T20:46:22.123Z,14.88
2022-11-26T20:48:50.298Z,12.68
2022-11-26T20:51:21.754Z,12.30
2022-11-26T20:53:50.917Z,13.27
2022-11-26T20:56:20.732Z,13.18
2022-11-26T20:58:49.569Z,12.35
2022-11-26T21:01:21.580Z,11.95
2022-11-26T21:03:50.101Z,16.73
2022-11-26T21:06:24.477Z,13.43
2022-11-26T21:08:57.417Z,13.13
2022-11-26T21:11:25.504Z,13.82
2022-11-26T21:13:53.455Z,15.05
2022-11-26T21:16:23.346Z,11.35
2022-11-26T21:18:53.624Z,12.52
2022-11-26T21:21:22.370Z,13.10
2022-11-26T21:23:50.745Z,14.70
2022-11-26T21:26:21.308Z,13.63
2022-11-26T21:28:52.456Z,17.83
2022-11-26T21:31:22.783Z,13.48
2022-11-26T21:33:56.677Z,12.10
2022-11-26T21:36:25.289Z,10.25
2022-11-26T21:38:53.226Z,13.07
2022-11-26T21:41:21.988Z,16.33
2022-11-26T21:43:50.633Z,11.15
2022-11-26T21:46:20.245Z,12.45
2022-11-26T21:48:49.669Z,13.73
2022-11-26T21:51:19.135Z,12.68
2022-11-26T21:53:49.631Z,11.93
2022-11-26T21:56:19.198Z,15.43
2022-11-26T21:58:47.514Z,11.88
2022-11-26T22:01:17.875Z,11.43
2022-11-26T22:03:49.949Z,12.13
2022-11-26T22:06:18.698Z,11.63
2022-11-26T22:08:47.517Z,10.23
2022-11-26T22:11:18.494Z,13.00
2022-11-26T22:13:46.548Z,10.98
2022-11-26T22:16:16.352Z,10.10
2022-11-26T22:18:46.012Z,9.93
2022-11-26T22:21:18.337Z,9.48
2022-11-26T22:23:46.930Z,9.27
2022-11-26T22:26:16.530Z,9.35
2022-11-26T22:28:44.575Z,9.50
2022-11-26T22:31:15.011Z,7.95
2022-11-26T22:33:43.123Z,11.13
2022-11-26T22:36:11.757Z,9.15
2022-11-26T22:38:42.440Z,8.60
2022-11-26T22:41:14.241Z,9.00
2022-11-26T22:43:42.852Z,10.32
2022-11-26T22:46:13.336Z,8.60
2022-11-26T22:48:41.849Z,7.88
2022-11-26T22:51:10.483Z,10.38
2022-11-26T22:53:38.611Z,11.38
2022-11-26T22:56:08.905Z,10.85
2022-11-26T22:58:37.082Z,11.77
2022-11-26T23:01:08.173Z,11.38
2022-11-26T23:03:38.104Z,8.43
2022-11-26T23:06:08.691Z,8.98
2022-11-26T23:08:37.356Z,10.18
2022-11-26T23:11:18.087Z,9.35
2022-11-26T23:13:47.519Z,9.57
2022-11-26T23:16:15.792Z,10.68
2022-11-26T23:18:44.421Z,7.70
2022-11-26T23:21:14.029Z,7.68
2022-11-26T23:23:42.644Z,8.15
2022-11-26T23:26:20.406Z,8.90
2022-11-26T23:28:51.726Z,9.57
2022-11-26T23:31:21.620Z,11.63
2022-11-26T23:33:50.652Z,9.27
2022-11-26T23:36:18.998Z,9.80
2022-11-26T23:38:47.512Z,10.88
2022-11-26T23:41:17.032Z,10.40
2022-11-26T23:43:45.563Z,10.02
2022-11-26T23:46:16.164Z,9.25
2022-11-26T23:48:44.595Z,9.40
2022-11-26T23:51:18.107Z,9.90
2022-11-26T23:53:47.420Z,8.40
2022-11-26T23:56:19.070Z,9.45
2022-11-26T23:58:49.633Z,13.02
